Time;durP1;ratioP1;P1;durP2;ratioP2;P2;SDS_P1;SDS_P2;PMS_P1;PMS_P2;Temp;Humidity;BMP_temperature;BMP_pressure;BME280_temperature;BME280_humidity;BME280_pressure;Samples;Min_cycle;Max_cycle;Signal;HPM_P1;HPM_P2
2022/12/11 00:00:14;;;;;;;10.50;8.70;;;;;;;16.49;65.43;99187.20;106916;1298;22555;-65
2022/12/11 00:02:40;;;;;;;9.90;8.00;;;;;;;16.45;65.69;99186.90;106912;1291;21949;-75
2022/12/11 11:31:13;;;;;;;28.40;13.10;;;;;;;17.20;89.97;98561.19;105365;1312;23656;-65
2022/12/11 11:33:55;;;;;;;27.40;9.50;;;;;;;17.74;84.45;98551.15;105301;1310;21989;-66
2022/12/11 11:36:26;;;;;;;24.60;9.00;;;;;;;18.05;81.34;98552.30;105319;1312;21969;-66
2022/12/11 11:39:04;;;;;;;23.30;7.90;;;;;;;18.53;78.83;98550.29;105437;1312;21975;-65
2022/12/11 11:41:36;;;;;;;22.70;8.60;;;;;;;18.62;77.61;98546.58;105356;1309;23080;-65
2022/12/11 11:44:06;;;;;;;19.80;6.40;;;;;;;18.59;76.79;98548.59;105648;1308;21963;-66
2022/12/11 11:46:35;;;;;;;19.80;7.40;;;;;;;18.65;76.08;98554.52;105616;1307;21967;-66
2022/12/11 11:49:33;;;;;;;21.50;7.00;;;;;;;18.59;75.56;98545.04;105686;1309;21970;-66
2022/12/11 11:52:20;;;;;;;24.70;7.80;;;;;;;18.72;75.21;98540.73;105668;1309;21981;-67
2022/12/11 11:54:57;;;;;;;21.80;8.20;;;;;;;18.86;74.78;98552.10;105584;1308;23735;-65
2022/12/11 11:57:36;;;;;;;26.90;7.50;;;;;;;18.92;73.69;98551.80;105579;1309;21970;-67
2022/12/11 12:00:14;;;;;;;23.40;10.80;;;;;;;18.74;74.01;98551.04;105602;1309;22729;-66
2022/12/11 12:02:40;;;;;;;35.10;14.40;;;;;;;18.48;73.81;98538.94;105580;1308;21973;-65
2022/12/11 12:05:11;;;;;;;35.80;14.60;;;;;;;18.52;73.89;98540.06;105598;1308;21958;-66
2022/12/11 12:11:10;;;;;;;39.30;16.30;;;;;;;18.68;73.30;98531.42;105594;1309;21967;-66
2022/12/11 12:13:39;;;;;;;47.10;17.70;;;;;;;18.87;72.04;98527.86;105661;1309;22730;-65
2022/12/11 12:16:10;;;;;;;39.90;16.90;;;;;;;19.07;71.25;98526.70;105770;1309;21972;-65
2022/12/11 12:18:42;;;;;;;;;;;;;;;19.00;70.95;98524.39;105676;1309;21927;-65
2022/12/11 12:21:33;;;;;;;48.30;20.80;;;;;;;19.01;71.08;98519.52;105696;1307;21964;-64
2022/12/11 12:24:35;;;;;;;33.30;14.00;;;;;;;18.90;71.67;98513.26;105610;1309;21975;-64
2022/12/11 12:27:12;;;;;;;34.50;15.40;;;;;;;18.71;71.95;98508.60;105604;1308;21967;-66
2022/12/11 12:30:04;;;;;;;52.90;23.80;;;;;;;18.65;71.85;98508.55;105630;1307;22103;-66
2022/12/11 12:32:30;;;;;;;72.50;26.80;;;;;;;18.55;71.52;98522.04;105735;1304;21969;-64
2022/12/11 12:35:23;;;;;;;42.40;20.80;;;;;;;18.54;72.26;98514.82;105728;1308;21969;-67
2022/12/11 12:38:10;;;;;;;32.30;14.60;;;;;;;18.62;71.84;98512.17;105708;1308;22442;-65
2022/12/11 12:40:51;;;;;;;34.40;13.70;;;;;;;18.61;71.41;98515.38;105654;1309;22606;-65
2022/12/11 12:43:41;;;;;;;29.90;13.60;;;;;;;18.46;71.91;98514.38;105580;1309;21971;-65
2022/12/11 12:46:30;;;;;;;37.20;16.10;;;;;;;18.55;71.81;98513.88;105632;1308;21976;-66
2022/12/11 12:48:56;;;;;;;37.90;15.60;;;;;;;18.65;71.59;98523.46;105703;1309;21973;-66
2022/12/11 12:51:22;;;;;;;49.50;20.90;;;;;;;18.74;71.13;98527.40;105659;1309;21963;-63
2022/12/11 12:53:54;;;;;;;41.60;20.50;;;;;;;18.75;70.64;98530.19;105725;1309;21960;-66
2022/12/11 12:56:21;;;;;;;51.90;21.40;;;;;;;18.79;70.31;98527.58;105724;1309;23616;-66
2022/12/11 12:58:47;;;;;;;53.30;20.90;;;;;;;18.76;70.03;98521.36;105581;1309;21963;-65
2022/12/11 13:01:15;;;;;;;62.40;24.40;;;;;;;18.58;70.96;98526.94;105625;1308;21952;-64
2022/12/11 13:04:04;;;;;;;82.60;27.30;;;;;;;18.63;71.10;98531.08;105603;1304;21963;-67
2022/12/11 13:06:35;;;;;;;75.90;27.70;;;;;;;18.70;70.52;98526.61;105633;1309;21961;-67
2022/12/11 13:09:24;;;;;;;49.60;20.30;;;;;;;18.73;70.13;98531.23;105664;1305;21977;-65
2022/12/11 13:11:56;;;;;;;45.10;18.40;;;;;;;18.76;70.34;98532.96;105817;1309;21977;-67
2022/12/11 13:14:26;;;;;;;43.90;19.10;;;;;;;18.67;70.13;98534.13;105769;1309;21969;-67
2022/12/11 13:17:19;;;;;;;34.60;15.40;;;;;;;18.59;70.74;98536.89;105669;1309;22223;-65
2022/12/11 13:19:47;;;;;;;41.50;19.50;;;;;;;18.55;70.44;98547.98;105701;1298;21968;-66
2022/12/11 13:22:15;;;;;;;37.60;17.60;;;;;;;18.64;70.52;98552.66;106193;1309;21966;-63
2022/12/11 13:25:00;;;;;;;31.40;14.60;;;;;;;18.76;69.84;98561.02;105715;1309;21978;-67
2022/12/11 13:27:28;;;;;;;22.00;10.20;;;;;;;18.82;69.74;98566.45;105748;1301;21983;-63
2022/12/11 13:30:12;;;;;;;24.40;12.40;;;;;;;18.88;69.61;98565.26;105608;1309;22007;-66
2022/12/11 13:32:40;;;;;;;23.90;10.40;;;;;;;18.98;68.78;98554.07;105634;1308;21967;-67
2022/12/11 13:35:07;;;;;;;26.00;10.00;;;;;;;18.73;69.20;98557.30;105668;1307;22044;-62
2022/12/11 13:37:45;;;;;;;29.50;10.10;;;;;;;18.63;70.04;98551.52;105670;1309;21975;-62
2022/12/11 13:40:21;;;;;;;26.80;10.50;;;;;;;18.45;70.49;98556.23;105737;1309;22751;-62
2022/12/11 13:42:53;;;;;;;20.90;9.20;;;;;;;18.35;71.03;98559.23;105647;1309;21975;-67
2022/12/11 13:45:26;;;;;;;22.30;10.30;;;;;;;18.30;71.19;98556.39;105670;1307;21967;-62
2022/12/11 13:47:52;;;;;;;32.10;11.30;;;;;;;18.31;71.09;98554.42;105657;1308;21983;-62
2022/12/11 13:50:21;;;;;;;27.30;10.60;;;;;;;18.29;71.26;98547.25;105662;1308;21970;-64
2022/12/11 13:52:58;;;;;;;29.10;11.90;;;;;;;18.43;70.99;98537.66;105603;1304;21971;-65
2022/12/11 13:55:29;;;;;;;28.60;11.00;;;;;;;18.34;71.28;98540.83;105694;1307;21969;-65
2022/12/11 13:57:55;;;;;;;25.50;12.80;;;;;;;18.28;71.54;98540.90;105710;1307;23138;-65
2022/12/11 14:00:23;;;;;;;25.10;12.30;;;;;;;18.24;71.12;98544.61;105828;1307;22006;-66
2022/12/11 14:02:49;;;;;;;36.00;15.70;;;;;;;18.17;71.43;98542.05;105796;1307;22011;-66
2022/12/11 14:05:16;;;;;;;28.30;13.20;;;;;;;18.19;71.79;98542.64;105670;1306;21967;-64
2022/12/11 14:07:45;;;;;;;39.50;18.40;;;;;;;18.22;71.53;98542.27;105634;1307;22250;-64
2022/12/11 14:10:15;;;;;;;32.70;16.40;;;;;;;18.27;71.34;98541.73;105815;1306;23724;-65
2022/12/11 14:12:49;;;;;;;42.10;19.40;;;;;;;18.28;70.99;98540.02;105750;1307;21979;-64
2022/12/11 14:15:16;;;;;;;36.90;17.80;;;;;;;18.32;70.86;98550.58;105703;1307;21964;-66
2022/12/11 14:17:43;;;;;;;29.70;12.70;;;;;;;18.44;70.51;98551.80;105751;1307;21968;-64
2022/12/11 14:20:20;;;;;;;32.20;15.30;;;;;;;18.60;69.76;98548.34;105823;1307;21969;-65
2022/12/11 14:22:46;;;;;;;32.40;14.90;;;;;;;18.63;69.34;98542.94;105764;1306;21967;-64
2022/12/11 14:25:26;;;;;;;31.30;14.10;;;;;;;18.67;69.22;98551.70;105649;1307;21969;-66
2022/12/11 14:27:54;;;;;;;33.10;15.30;;;;;;;18.62;69.19;98555.45;105740;1307;21949;-64
2022/12/11 14:30:26;;;;;;;54.10;28.20;;;;;;;18.60;69.39;98559.36;105803;1307;21986;-66
2022/12/11 14:33:00;;;;;;;54.30;32.00;;;;;;;18.62;69.31;98560.79;105701;1307;21965;-66
2022/12/11 14:35:27;;;;;;;49.40;25.50;;;;;;;18.61;69.09;98558.39;105646;1304;22076;-66
2022/12/11 14:37:52;;;;;;;41.80;21.70;;;;;;;18.63;69.01;98558.23;105698;1306;21972;-66
2022/12/11 14:40:23;;;;;;;42.00;21.50;;;;;;;18.66;68.83;98555.52;105620;1308;21971;-66
2022/12/11 14:42:56;;;;;;;43.10;20.60;;;;;;;18.75;68.70;98562.36;105851;1306;21964;-66
2022/12/11 14:45:33;;;;;;;36.10;19.90;;;;;;;18.69;68.82;98565.83;105745;1308;22829;-65
2022/12/11 14:47:59;;;;;;;48.50;25.40;;;;;;;18.76;68.51;98568.30;105877;1307;21981;-65
2022/12/11 14:50:26;;;;;;;52.70;25.90;;;;;;;18.72;68.35;98564.54;105659;1307;21976;-64
2022/12/11 14:52:56;;;;;;;35.20;16.40;;;;;;;18.65;68.41;98568.41;105756;1307;22055;-64
2022/12/11 14:55:28;;;;;;;34.70;16.30;;;;;;;18.68;68.23;98571.52;105737;1307;22008;-66
2022/12/11 14:57:59;;;;;;;32.40;15.30;;;;;;;18.61;68.43;98573.30;105878;1307;21960;-66
2022/12/11 15:00:30;;;;;;;35.30;14.10;;;;;;;18.58;68.13;98566.05;105738;1307;21969;-63
2022/12/11 15:03:20;;;;;;;30.60;12.30;;;;;;;18.54;67.77;98556.71;105705;1306;23730;-63
2022/12/11 15:05:52;;;;;;;31.30;12.40;;;;;;;18.61;67.74;98555.73;105640;1307;21967;-65
2022/12/11 15:08:26;;;;;;;28.60;11.70;;;;;;;18.62;67.73;98556.00;105673;1307;21972;-64
2022/12/11 15:11:07;;;;;;;26.80;10.80;;;;;;;18.58;67.87;98549.39;105622;1306;22024;-63
